createdAt,value
2018-09-23T07:21:26.811Z,34.11
2018-09-23T07:22:23.023Z,33.92
2018-09-23T07:23:23.003Z,33.64
2018-09-23T07:24:25.836Z,34.16
2018-09-23T07:25:24.246Z,32.91
2018-09-23T07:26:22.403Z,32.04
2018-09-23T07:28:23.000Z,31.29
2018-09-23T07:29:22.494Z,30.32
2018-09-23T07:31:22.435Z,29.74
2018-09-23T07:32:22.473Z,29.36
2018-09-23T07:33:25.750Z,28.29
2018-09-23T07:34:22.475Z,28.40
2018-09-23T07:35:25.986Z,27.63
2018-09-23T07:37:22.483Z,26.45
2018-09-23T07:38:22.480Z,26.58
2018-09-23T07:39:25.332Z,26.61
2018-09-23T07:40:22.468Z,25.34
2018-09-23T07:42:22.487Z,24.73
2018-09-23T07:43:24.774Z,24.38
2018-09-23T07:44:22.443Z,24.17
2018-09-23T07:45:22.464Z,23.41
2018-09-23T07:48:24.763Z,29.54
2018-09-23T07:49:22.446Z,31.35
2018-09-23T07:50:24.202Z,32.76
2018-09-23T07:52:25.205Z,33.80
2018-09-23T07:53:22.468Z,35.43
2018-09-23T07:54:22.483Z,36.00
2018-09-23T07:55:24.257Z,35.86
2018-09-23T07:56:22.403Z,33.22
2018-09-23T07:57:25.889Z,34.95
2018-09-23T08:00:22.463Z,40.09
2018-09-23T08:01:22.441Z,41.39
2018-09-23T08:02:25.723Z,42.24
2018-09-23T08:03:22.348Z,42.02
2018-09-23T08:05:22.363Z,35.75
2018-09-23T08:06:22.389Z,33.00
2018-09-23T08:09:22.420Z,29.94
2018-09-23T08:11:22.423Z,27.53
2018-09-23T08:12:24.847Z,28.30
2018-09-23T08:13:22.554Z,25.70
2018-09-23T08:14:22.826Z,24.76
2018-09-23T08:16:22.402Z,22.89
2018-09-23T08:17:25.875Z,21.95
2018-09-23T08:18:25.237Z,20.48
2018-09-23T08:20:22.521Z,20.04
2018-09-23T08:21:25.732Z,18.26
2018-09-23T08:22:22.438Z,17.47
2018-09-23T08:23:25.245Z,17.69
2018-09-23T08:24:22.439Z,17.71
2018-09-23T08:52:47.202Z,28.50
2018-09-23T10:54:07.738Z,20.17
2018-09-23T10:54:47.593Z,20.36
2018-09-23T13:00:33.915Z,26.10
2018-09-23T14:25:25.821Z,21.19
2018-09-23T17:13:01.883Z,73.79
2018-09-23T19:01:52.058Z,70.29
2018-09-23T19:43:43.608Z,70.16
2018-09-23T19:44:08.025Z,69.87
2018-09-23T19:45:27.257Z,70.26
2018-09-23T19:46:10.976Z,70.07
2018-09-23T19:47:06.625Z,70.22
2018-09-23T19:48:07.065Z,69.87
2018-09-23T19:49:05.999Z,70.26
2018-09-23T19:50:06.119Z,70.64
2018-09-23T19:51:08.071Z,70.16
2018-09-23T19:52:18.011Z,70.26
2018-09-23T19:55:29.864Z,70.42
2018-09-23T20:02:13.718Z,70.42
2018-09-23T20:03:12.923Z,70.22
2018-09-23T20:09:03.395Z,70.86
2018-09-23T20:09:14.858Z,70.47
2018-09-23T20:11:13.075Z,70.47
2018-09-23T20:13:08.487Z,71.23
2018-09-23T20:14:12.437Z,71.23
2018-09-23T20:20:42.718Z,71.52
2018-09-23T20:22:16.272Z,71.14
2018-09-23T20:23:29.513Z,71.91
2018-09-23T20:24:09.092Z,71.62
2018-09-23T20:25:08.470Z,71.62
2018-09-23T20:26:09.138Z,72.00
2018-09-23T20:27:13.170Z,72.00
2018-09-23T20:28:11.235Z,72.09
2018-09-23T20:29:08.454Z,72.19
2018-09-23T20:30:23.201Z,72.00
2018-09-23T20:31:32.149Z,72.19
2018-09-23T20:32:15.192Z,72.28
2018-09-23T20:37:31.022Z,72.00
2018-09-23T20:37:57.202Z,71.81
2018-09-23T20:40:01.667Z,72.19
2018-09-23T20:40:52.288Z,72.19
2018-09-23T20:45:45.061Z,72.67
2018-09-23T21:02:01.945Z,72.38
2018-09-23T21:08:58.664Z,72.28
2018-09-23T21:09:49.072Z,72.28
2018-09-23T21:12:12.948Z,72.57
2018-09-23T21:13:00.038Z,72.28
2018-09-23T21:14:00.004Z,72.67
2018-09-23T21:15:57.624Z,72.57
2018-09-23T21:16:59.295Z,73.14
2018-09-23T21:17:57.573Z,73.05
2018-09-23T21:20:00.415Z,72.67
2018-09-23T21:21:57.548Z,72.96
2018-09-23T21:22:57.590Z,73.14
2018-09-23T21:23:57.501Z,73.14
2018-09-23T21:24:57.425Z,72.96
2018-09-23T21:26:00.007Z,72.76
2018-09-23T21:26:57.514Z,73.05
2018-09-23T21:27:57.521Z,73.05
2018-09-23T21:28:59.072Z,72.76
2018-09-23T21:29:59.031Z,73.62
2018-09-23T21:30:59.531Z,73.52
2018-09-23T21:31:57.307Z,73.33
2018-09-23T21:32:57.387Z,73.91
2018-09-23T21:33:57.373Z,73.43
2018-09-23T21:34:57.188Z,73.62
2018-09-23T21:35:58.915Z,74.10
2018-09-23T21:36:57.405Z,74.01
2018-09-23T21:37:58.391Z,73.52
2018-09-23T21:40:57.341Z,73.62
2018-09-23T21:41:57.226Z,73.62
2018-09-23T21:43:00.605Z,73.52
2018-09-23T21:43:59.008Z,73.72
2018-09-23T21:44:57.258Z,73.39
2018-09-23T21:45:57.128Z,73.33
2018-09-23T21:47:56.975Z,73.81
2018-09-23T21:48:57.107Z,73.91
2018-09-23T21:49:57.041Z,73.96
2018-09-23T21:50:57.214Z,73.96
2018-09-23T21:51:57.189Z,73.96
2018-09-23T21:52:57.219Z,73.87
2018-09-23T21:54:57.145Z,74.06
2018-09-23T21:55:57.130Z,74.44
2018-09-23T21:56:56.965Z,74.25
2018-09-23T21:57:58.883Z,74.44
2018-09-23T21:58:57.112Z,74.44
2018-09-23T21:59:57.060Z,74.92
2018-09-23T22:00:59.411Z,75.11
2018-09-23T22:01:56.999Z,74.82
2018-09-23T22:02:57.016Z,75.40
2018-09-23T22:03:57.023Z,75.11
2018-09-23T22:04:58.846Z,75.78
2018-09-23T22:05:56.949Z,75.30
2018-09-23T22:06:57.899Z,75.40
2018-09-23T22:07:56.848Z,75.59
2018-09-23T22:08:56.937Z,75.59
2018-09-23T22:09:57.946Z,75.59
2018-09-23T22:10:56.863Z,75.87
2018-09-23T22:11:56.885Z,75.78
2018-09-23T22:12:56.803Z,76.06
2018-09-23T22:13:56.810Z,76.06
2018-09-23T22:14:58.437Z,76.16
2018-09-23T22:15:56.681Z,75.49
2018-09-23T22:16:56.792Z,75.49
2018-09-23T22:18:56.708Z,75.78
2018-09-23T22:20:56.736Z,75.78
2018-09-23T22:21:58.488Z,75.59
2018-09-23T22:23:56.744Z,75.64
2018-09-23T22:24:56.657Z,75.64
2018-09-23T22:25:58.499Z,75.59
2018-09-23T22:26:58.444Z,75.74
2018-09-23T22:27:56.589Z,75.74
2018-09-23T22:28:56.694Z,75.55
2018-09-23T22:29:56.585Z,75.55
2018-09-23T22:30:56.610Z,75.45
2018-09-23T22:31:56.526Z,75.55
2018-09-23T22:32:56.532Z,76.12
2018-09-23T22:33:56.528Z,75.64
2018-09-23T22:34:56.557Z,75.84
2018-09-23T22:35:59.054Z,76.03
2018-09-23T22:36:56.527Z,75.84
2018-09-23T22:38:56.396Z,75.84
2018-09-23T22:39:56.509Z,76.12
2018-09-23T22:40:56.515Z,76.03
2018-09-23T22:42:57.494Z,75.84
2018-09-23T22:45:51.468Z,75.93
2018-09-23T22:48:22.792Z,75.93
2018-09-23T22:48:59.014Z,75.93
2018-09-23T22:52:06.985Z,76.40
2018-09-23T22:53:11.826Z,76.31
2018-09-23T22:54:07.081Z,76.21
2018-09-23T22:55:17.943Z,76.59
2018-09-23T22:56:06.929Z,76.21
2018-09-23T22:57:07.012Z,76.03
2018-09-23T22:58:07.353Z,76.59
2018-09-23T22:59:07.293Z,76.31
2018-09-23T23:00:27.921Z,76.31
2018-09-23T23:01:06.721Z,76.59
2018-09-23T23:03:27.896Z,77.17
2018-09-23T23:05:21.374Z,77.26
2018-09-23T23:06:06.752Z,76.59
2018-09-23T23:07:06.719Z,76.88
2018-09-23T23:08:06.726Z,77.07
2018-09-23T23:09:17.462Z,77.07
2018-09-23T23:12:43.714Z,77.45
2018-09-23T23:13:47.312Z,77.17
2018-09-23T23:14:33.181Z,77.07
2018-09-23T23:17:16.353Z,77.26
2018-09-23T23:18:07.754Z,77.55
2018-09-23T23:20:05.132Z,77.74
2018-09-23T23:21:00.661Z,77.93
2018-09-23T23:24:14.724Z,78.03
2018-09-23T23:26:52.912Z,77.93
2018-09-23T23:27:43.049Z,77.74
2018-09-23T23:29:49.702Z,77.89
2018-09-23T23:30:37.178Z,77.93
2018-09-23T23:33:41.611Z,77.55
2018-09-23T23:35:26.817Z,77.70
2018-09-23T23:36:24.150Z,77.70
2018-09-23T23:38:41.475Z,77.98
2018-09-23T23:40:47.278Z,77.89
2018-09-23T23:41:48.911Z,77.61
2018-09-23T23:42:53.964Z,77.61
2018-09-23T23:43:47.211Z,77.61
2018-09-23T23:44:57.940Z,77.89
2018-09-23T23:45:47.252Z,77.80
2018-09-23T23:46:47.206Z,77.61
2018-09-23T23:48:08.108Z,77.89
2018-09-23T23:48:47.997Z,78.17
2018-09-23T23:49:51.956Z,78.27
2018-09-23T23:50:49.932Z,78.17
2018-09-23T23:51:47.172Z,78.17
2018-09-23T23:52:47.173Z,78.17
2018-09-23T23:55:08.000Z,78.08
2018-09-23T23:55:47.069Z,77.98
2018-09-23T23:56:57.907Z,78.08
2018-09-23T23:57:46.978Z,78.37
2018-09-23T23:58:48.993Z,78.56
2018-09-23T23:59:48.898Z,78.65
